Time;durP1;ratioP1;P1;durP2;ratioP2;P2;SDS_P1;SDS_P2;PMS_P1;PMS_P2;Temp;Humidity;BMP_temperature;BMP_pressure;BME280_temperature;BME280_humidity;BME280_pressure;Samples;Min_cycle;Max_cycle;Signal;HPM_P1;HPM_P2
2022/05/09 00:01:54;;;;;;;4.23;2.20;;;6.30;80.30;;;;;;5077150;28;20224;-78
2022/05/09 00:04:22;;;;;;;5.33;2.87;;;6.30;80.60;;;;;;5077782;28;20222;-78
2022/05/09 00:06:50;;;;;;;4.97;2.30;;;6.30;80.50;;;;;;5073373;28;20230;-78
2022/05/09 00:09:18;;;;;;;5.37;1.87;;;6.20;80.20;;;;;;5075268;28;20265;-78
2022/05/09 00:11:47;;;;;;;3.67;2.07;;;6.20;80.60;;;;;;5079282;28;20237;-78
2022/05/09 00:14:13;;;;;;;4.80;2.10;;;6.20;80.90;;;;;;5077230;28;20272;-78
2022/05/09 00:16:41;;;;;;;4.03;2.17;;;6.20;80.90;;;;;;5098303;28;20238;-78
2022/05/09 00:19:13;;;;;;;3.20;1.80;;;6.20;81.50;;;;;;5076060;28;20218;-78
2022/05/09 00:21:42;;;;;;;4.80;1.97;;;6.10;81.20;;;;;;5078874;28;20236;-77
2022/05/09 00:24:13;;;;;;;4.47;2.00;;;6.10;80.60;;;;;;5079106;28;20803;-77
2022/05/09 00:26:46;;;;;;;3.00;2.00;;;6.10;80.10;;;;;;5083248;28;20226;-78
2022/05/09 00:29:14;;;;;;;3.80;1.80;;;6.10;80.10;;;;;;5080553;28;20318;-77
2022/05/09 00:31:43;;;;;;;4.10;2.20;;;6.00;80.30;;;;;;5079880;28;20233;-78
2022/05/09 00:34:10;;;;;;;4.47;2.10;;;6.00;81.50;;;;;;5072034;28;20333;-78
2022/05/09 00:36:37;;;;;;;4.17;1.80;;;5.90;82.50;;;;;;5075103;28;20225;-77
2022/05/09 00:39:05;;;;;;;5.73;2.10;;;5.90;83.00;;;;;;5078297;28;20222;-76
2022/05/09 00:41:34;;;;;;;6.10;1.97;;;5.90;83.80;;;;;;5078629;28;20643;-77
2022/05/09 00:44:09;;;;;;;3.77;1.93;;;5.80;83.50;;;;;;5076270;28;20230;-77
2022/05/09 00:46:36;;;;;;;4.77;1.83;;;5.80;84.50;;;;;;5074881;28;20659;-77
2022/05/09 00:49:10;;;;;;;4.53;1.70;;;5.80;84.20;;;;;;5073788;28;20225;-76
2022/05/09 00:51:39;;;;;;;3.07;2.00;;;5.80;84.80;;;;;;5077190;28;20218;-77
2022/05/09 00:54:07;;;;;;;3.77;1.90;;;5.70;84.60;;;;;;5089697;28;20223;-77
2022/05/09 00:56:38;;;;;;;4.80;2.47;;;5.70;85.10;;;;;;5077714;28;20226;-76
2022/05/09 00:59:08;;;;;;;4.57;1.97;;;5.70;85.90;;;;;;5077020;28;20217;-77
2022/05/09 01:01:36;;;;;;;3.00;1.90;;;5.60;86.10;;;;;;5075124;28;20310;-76
2022/05/09 01:04:09;;;;;;;4.60;1.50;;;5.60;85.90;;;;;;5076673;28;20219;-76
2022/05/09 01:06:37;;;;;;;3.50;1.90;;;5.60;86.50;;;;;;5091542;28;20223;-77
2022/05/09 01:09:04;;;;;;;4.90;1.90;;;5.50;85.80;;;;;;5076184;28;20237;-76
2022/05/09 01:11:34;;;;;;;3.90;1.53;;;5.50;85.80;;;;;;5074356;28;20302;-77
2022/05/09 01:14:04;;;;;;;5.00;2.30;;;5.50;86.50;;;;;;5074266;28;20246;-76
2022/05/09 01:16:33;;;;;;;3.57;1.80;;;5.50;86.40;;;;;;5078133;28;21086;-76
2022/05/09 01:19:03;;;;;;;4.40;2.10;;;5.50;86.30;;;;;;5080850;28;20228;-76
2022/05/09 01:21:34;;;;;;;3.43;2.10;;;5.50;86.20;;;;;;5080642;28;20281;-77
2022/05/09 01:24:01;;;;;;;5.23;1.90;;;5.40;86.60;;;;;;5090144;28;20599;-76
2022/05/09 01:26:28;;;;;;;4.90;2.27;;;5.40;86.50;;;;;;5075274;28;21984;-77
2022/05/09 01:29:00;;;;;;;5.20;1.70;;;5.40;86.70;;;;;;5084539;28;20237;-77
2022/05/09 01:31:27;;;;;;;4.50;1.63;;;5.40;87.10;;;;;;5086047;28;20266;-77
2022/05/09 01:33:56;;;;;;;3.43;1.90;;;5.40;86.80;;;;;;5083311;28;20275;-77
2022/05/09 01:36:28;;;;;;;6.97;2.20;;;5.40;87.80;;;;;;5081247;28;20232;-77
2022/05/09 01:39:00;;;;;;;6.83;2.10;;;5.40;88.70;;;;;;5085084;28;20245;-77
2022/05/09 01:41:28;;;;;;;4.13;1.90;;;5.40;88.90;;;;;;5081852;28;20309;-77
2022/05/09 01:43:56;;;;;;;7.57;2.53;;;5.40;88.70;;;;;;5082683;28;20214;-77
2022/05/09 01:46:26;;;;;;;4.90;2.10;;;5.40;88.70;;;;;;5080131;28;20214;-78
2022/05/09 01:51:40;;;;;;;4.40;2.20;;;5.30;89.60;;;;;;5091460;28;20228;-78
2022/05/09 01:54:08;;;;;;;4.17;2.00;;;5.40;89.80;;;;;;5086246;28;20229;-78
2022/05/09 01:56:38;;;;;;;6.70;2.33;;;5.40;90.00;;;;;;5086101;28;20229;-78
2022/05/09 01:59:07;;;;;;;3.97;2.10;;;5.30;90.20;;;;;;5087220;28;20225;-77
2022/05/09 02:01:39;;;;;;;7.47;2.37;;;5.40;90.30;;;;;;5085393;28;20232;-77
2022/05/09 02:04:06;;;;;;;5.50;2.30;;;5.30;90.50;;;;;;5085620;28;20226;-78
2022/05/09 02:06:33;;;;;;;6.43;2.73;;;5.40;90.50;;;;;;5080740;28;20226;-78
2022/05/09 02:09:01;;;;;;;8.00;2.37;;;5.30;90.70;;;;;;5082982;28;20211;-77
2022/05/09 02:11:29;;;;;;;9.00;2.30;;;5.30;91.00;;;;;;5080359;28;20230;-77
2022/05/09 02:13:56;;;;;;;6.30;2.17;;;5.30;91.20;;;;;;5083489;28;20322;-78
2022/05/09 02:16:23;;;;;;;3.93;2.00;;;5.30;91.20;;;;;;5083347;28;20226;-78
2022/05/09 02:18:50;;;;;;;6.43;2.40;;;5.30;91.30;;;;;;5083476;28;20249;-77
2022/05/09 02:21:17;;;;;;;8.23;2.67;;;5.30;91.40;;;;;;5081047;28;20222;-76
2022/05/09 02:23:44;;;;;;;6.83;2.57;;;5.30;91.60;;;;;;5077280;28;20731;-77
2022/05/09 02:26:10;;;;;;;4.57;2.40;;;5.30;91.70;;;;;;5084195;28;20567;-76
2022/05/09 02:28:39;;;;;;;6.07;2.13;;;5.30;91.70;;;;;;5095630;28;20226;-76
2022/05/09 02:31:05;;;;;;;6.13;2.30;;;5.30;91.80;;;;;;5079327;28;20231;-76
2022/05/09 02:33:32;;;;;;;7.13;2.53;;;5.20;91.50;;;;;;5074146;28;20225;-76
2022/05/09 02:35:59;;;;;;;6.33;2.87;;;5.20;91.60;;;;;;5082884;28;20685;-77
2022/05/09 02:38:28;;;;;;;7.23;2.57;;;5.20;91.90;;;;;;5082136;28;20221;-77
2022/05/09 02:40:57;;;;;;;6.27;2.40;;;5.20;92.00;;;;;;5080724;28;20277;-77
2022/05/09 02:43:24;;;;;;;6.90;2.63;;;5.10;91.90;;;;;;5079201;28;20234;-78
2022/05/09 02:45:52;;;;;;;7.83;2.50;;;5.10;91.90;;;;;;5088070;28;20236;-77
2022/05/09 02:48:18;;;;;;;5.87;2.47;;;5.10;92.10;;;;;;5084750;28;20213;-77
2022/05/09 02:50:45;;;;;;;6.37;2.97;;;5.10;91.90;;;;;;5084408;28;20229;-77
2022/05/09 02:53:13;;;;;;;8.10;2.63;;;5.00;91.90;;;;;;5077564;28;20381;-76
2022/05/09 02:55:39;;;;;;;4.63;2.60;;;5.00;92.10;;;;;;5076698;28;20224;-77
2022/05/09 02:58:07;;;;;;;6.70;2.43;;;5.00;92.20;;;;;;5080388;28;20644;-76
2022/05/09 03:00:33;;;;;;;9.23;3.13;;;5.00;92.20;;;;;;5078150;28;20230;-76
2022/05/09 03:05:47;;;;;;;10.43;3.47;;;4.90;92.50;;;;;;5077465;28;20604;-76
2022/05/09 03:08:16;;;;;;;8.40;2.70;;;4.90;92.50;;;;;;5076543;28;20233;-76
2022/05/09 03:10:43;;;;;;;6.53;2.80;;;4.80;92.60;;;;;;5079597;28;20222;-77
2022/05/09 03:13:12;;;;;;;6.63;2.70;;;4.80;92.80;;;;;;5074839;28;20306;-76
2022/05/09 03:15:41;;;;;;;6.17;2.67;;;4.80;93.00;;;;;;5079908;28;20225;-76
2022/05/09 03:18:10;;;;;;;8.57;2.47;;;4.80;93.10;;;;;;5079978;28;20335;-76
2022/05/09 03:20:38;;;;;;;6.73;3.03;;;4.80;93.30;;;;;;5079525;28;20230;-77
2022/05/09 03:23:05;;;;;;;7.83;2.60;;;4.80;93.20;;;;;;5080066;28;20224;-77
2022/05/09 03:25:33;;;;;;;8.33;2.93;;;4.80;93.50;;;;;;5083523;28;20231;-77
2022/05/09 03:28:00;;;;;;;5.47;2.80;;;4.70;93.60;;;;;;5077580;28;20225;-78
2022/05/09 03:30:27;;;;;;;8.83;2.83;;;4.70;93.80;;;;;;5085000;28;20233;-78
2022/05/09 03:32:53;;;;;;;10.83;2.50;;;4.70;93.80;;;;;;5079888;28;20257;-78
2022/05/09 03:35:22;;;;;;;6.23;2.47;;;4.70;93.80;;;;;;5083193;28;20315;-77
2022/05/09 03:37:48;;;;;;;6.90;2.60;;;4.70;94.10;;;;;;5081242;28;20229;-78
2022/05/09 03:40:18;;;;;;;7.30;2.63;;;4.80;94.00;;;;;;5084190;28;20270;-78
2022/05/09 03:42:45;;;;;;;4.97;2.63;;;4.80;93.90;;;;;;5081808;28;20262;-78
2022/05/09 03:45:12;;;;;;;7.37;2.17;;;4.80;94.10;;;;;;5080885;28;20222;-78
2022/05/09 03:47:39;;;;;;;5.87;2.50;;;4.80;94.20;;;;;;5081673;28;20229;-79
2022/05/09 03:50:09;;;;;;;5.70;2.20;;;4.80;94.10;;;;;;5087362;28;20257;-78
2022/05/09 03:52:38;;;;;;;6.87;2.73;;;4.80;94.10;;;;;;5079748;28;20314;-77
2022/05/09 03:55:06;;;;;;;9.20;2.77;;;4.80;94.20;;;;;;5076033;28;20217;-77
2022/05/09 03:57:32;;;;;;;6.37;2.47;;;4.80;94.30;;;;;;5078525;28;20229;-77
2022/05/09 04:00:04;;;;;;;6.60;2.50;;;4.80;94.10;;;;;;5078959;28;20224;-77
2022/05/09 04:02:30;;;;;;;7.10;2.47;;;4.80;94.70;;;;;;5083500;28;20285;-77
2022/05/09 04:04:57;;;;;;;8.17;3.00;;;4.80;94.30;;;;;;5071581;28;20802;-78
2022/05/09 04:07:24;;;;;;;7.37;2.70;;;4.80;94.40;;;;;;5078696;28;20237;-76
2022/05/09 04:09:52;;;;;;;11.67;3.83;;;4.90;94.60;;;;;;5078419;28;20685;-76
2022/05/09 04:12:19;;;;;;;5.53;3.00;;;4.90;94.70;;;;;;5073781;28;20230;-76
2022/05/09 04:17:30;;;;;;;6.73;2.43;;;5.00;94.40;;;;;;5077714;28;20734;-76
2022/05/09 04:19:57;;;;;;;5.37;2.40;;;5.00;94.20;;;;;;5081184;28;20735;-77
2022/05/09 04:22:27;;;;;;;5.67;2.20;;;5.10;94.10;;;;;;5075123;28;20245;-77
2022/05/09 04:24:55;;;;;;;6.63;2.73;;;5.10;94.10;;;;;;5079292;28;20255;-77
2022/05/09 04:27:21;;;;;;;4.63;2.27;;;5.10;94.30;;;;;;5076114;28;20237;-76
2022/05/09 04:29:49;;;;;;;8.10;2.70;;;5.20;94.30;;;;;;5079470;28;20308;-76
2022/05/09 04:32:17;;;;;;;5.77;2.43;;;5.20;94.10;;;;;;5081223;28;20248;-79
2022/05/09 04:34:43;;;;;;;5.10;2.30;;;5.30;94.40;;;;;;5083215;28;20225;-78
2022/05/09 04:37:10;;;;;;;6.73;2.83;;;5.30;94.20;;;;;;5078904;28;20228;-82
2022/05/09 04:39:37;;;;;;;6.23;2.20;;;5.30;94.30;;;;;;5077617;28;20230;-79
2022/05/09 04:42:07;;;;;;;6.37;2.20;;;5.40;94.40;;;;;;5073746;28;20218;-76
2022/05/09 04:44:34;;;;;;;4.63;2.27;;;5.40;94.10;;;;;;5071414;28;20220;-77
2022/05/09 04:47:01;;;;;;;6.80;2.60;;;5.40;94.00;;;;;;5075209;28;20226;-76
2022/05/09 04:49:27;;;;;;;7.93;2.70;;;5.50;94.30;;;;;;5076963;28;20257;-76
2022/05/09 04:51:54;;;;;;;8.73;2.87;;;5.60;94.40;;;;;;5071898;28;20225;-76
2022/05/09 04:54:20;;;;;;;7.43;2.50;;;5.60;94.50;;;;;;5077647;28;20354;-76
2022/05/09 04:56:47;;;;;;;9.53;3.03;;;5.70;94.60;;;;;;5074022;28;20226;-76
2022/05/09 04:59:16;;;;;;;6.60;2.47;;;5.80;94.40;;;;;;5078997;28;20248;-76
2022/05/09 05:01:42;;;;;;;8.53;3.27;;;5.80;94.10;;;;;;5077757;28;20233;-76
2022/05/09 05:04:10;;;;;;;4.70;2.23;;;5.90;93.90;;;;;;5076411;28;20317;-76
2022/05/09 05:06:37;;;;;;;5.70;2.13;;;5.90;94.00;;;;;;5076535;28;20236;-75
2022/05/09 05:09:04;;;;;;;6.13;2.50;;;5.90;93.90;;;;;;5073452;28;20218;-74
2022/05/09 05:11:30;;;;;;;5.23;2.67;;;6.00;93.90;;;;;;5071859;28;20614;-76
2022/05/09 05:13:57;;;;;;;7.27;2.67;;;6.00;93.90;;;;;;5077029;28;20218;-76
2022/05/09 05:19:07;;;;;;;4.40;2.17;;;6.10;94.00;;;;;;5081588;28;20280;-76
2022/05/09 05:21:34;;;;;;;6.97;2.73;;;6.20;93.90;;;;;;5076607;28;20220;-77
2022/05/09 05:24:00;;;;;;;5.00;2.33;;;6.20;94.10;;;;;;5076053;28;20231;-77
2022/05/09 05:26:27;;;;;;;7.30;2.30;;;6.30;94.20;;;;;;5085413;28;20230;-77
2022/05/09 05:28:54;;;;;;;8.10;2.47;;;6.40;94.40;;;;;;5081791;28;20233;-77
2022/05/09 05:31:20;;;;;;;4.07;2.17;;;6.40;94.30;;;;;;5084398;28;20227;-77
2022/05/09 05:33:49;;;;;;;7.10;2.40;;;6.50;94.40;;;;;;5081005;28;20231;-77
2022/05/09 05:36:16;;;;;;;4.30;2.60;;;6.60;94.40;;;;;;5084498;28;20223;-77
2022/05/09 05:38:43;;;;;;;7.53;2.23;;;6.60;94.20;;;;;;5075114;28;20234;-77
2022/05/09 05:41:10;;;;;;;6.57;2.47;;;6.70;94.30;;;;;;5081975;28;20222;-77
2022/05/09 05:43:37;;;;;;;9.77;2.70;;;6.80;94.40;;;;;;5079788;28;20381;-77
2022/05/09 05:46:03;;;;;;;9.10;2.13;;;6.80;94.50;;;;;;5081035;28;20215;-77
2022/05/09 05:48:30;;;;;;;7.20;2.47;;;6.90;94.70;;;;;;5083071;28;20222;-77
2022/05/09 05:50:58;;;;;;;5.83;2.27;;;7.00;94.60;;;;;;5073754;28;20222;-77
2022/05/09 05:53:25;;;;;;;8.90;2.40;;;7.10;94.80;;;;;;5078738;28;20221;-77
2022/05/09 05:55:51;;;;;;;6.57;2.40;;;7.10;94.60;;;;;;5077625;28;20238;-77
2022/05/09 05:58:18;;;;;;;7.33;2.80;;;7.20;94.60;;;;;;5081065;28;20221;-77
2022/05/09 06:00:44;;;;;;;5.93;2.50;;;7.30;94.60;;;;;;5083112;28;20272;-77
2022/05/09 06:03:11;;;;;;;3.80;2.20;;;7.40;94.60;;;;;;5079753;28;20284;-77
2022/05/09 06:05:38;;;;;;;8.70;3.07;;;7.50;94.80;;;;;;5079970;28;20313;-77
2022/05/09 06:08:07;;;;;;;7.73;2.20;;;7.60;94.70;;;;;;5081674;28;20256;-77
2022/05/09 06:10:34;;;;;;;6.77;2.30;;;7.80;94.70;;;;;;5083303;28;20337;-77
2022/05/09 06:13:02;;;;;;;9.43;2.90;;;8.00;94.50;;;;;;5083244;28;20222;-77
2022/05/09 06:15:31;;;;;;;11.63;3.00;;;8.20;94.40;;;;;;5084807;28;20227;-77
2022/05/09 06:17:59;;;;;;;9.47;2.07;;;8.30;94.10;;;;;;5084583;28;20275;-77
2022/05/09 06:20:27;;;;;;;9.50;2.47;;;8.40;94.00;;;;;;5085958;28;20226;-78
2022/05/09 06:22:56;;;;;;;6.93;2.53;;;8.50;93.90;;;;;;5075612;28;20314;-78
2022/05/09 06:25:24;;;;;;;5.13;2.43;;;8.60;93.70;;;;;;5078946;28;20317;-78
2022/05/09 06:27:51;;;;;;;7.00;2.63;;;8.80;93.40;;;;;;5084486;28;20229;-78
2022/05/09 06:30:20;;;;;;;6.60;2.60;;;8.90;93.10;;;;;;5082631;28;20621;-79
2022/05/09 06:32:47;;;;;;;9.53;2.40;;;9.00;93.00;;;;;;5082572;28;20233;-78
2022/05/09 06:35:18;;;;;;;6.13;2.60;;;9.00;92.90;;;;;;5085849;28;20226;-78
2022/05/09 06:37:45;;;;;;;8.27;2.53;;;9.10;93.40;;;;;;5086041;28;20721;-78
2022/05/09 06:40:12;;;;;;;6.60;2.53;;;9.30;93.10;;;;;;5086441;28;20234;-77
2022/05/09 06:42:41;;;;;;;8.83;2.10;;;9.50;93.00;;;;;;5083917;28;20230;-79
2022/05/09 06:45:09;;;;;;;9.97;2.50;;;9.70;93.20;;;;;;5084708;28;20237;-79
2022/05/09 06:47:36;;;;;;;6.23;2.17;;;10.00;93.20;;;;;;5077461;28;20227;-78
2022/05/09 06:50:03;;;;;;;7.63;2.70;;;10.30;92.80;;;;;;5086994;28;20227;-78
2022/05/09 06:52:30;;;;;;;7.47;2.00;;;10.60;92.60;;;;;;5076253;28;20225;-79
2022/05/09 06:54:57;;;;;;;7.57;2.20;;;10.80;92.10;;;;;;5084681;28;20851;-79
2022/05/09 06:57:24;;;;;;;6.63;2.07;;;11.00;91.70;;;;;;5083533;28;20380;-78
2022/05/09 06:59:52;;;;;;;6.53;2.37;;;11.20;91.70;;;;;;5086061;28;20260;-79
2022/05/09 07:02:18;;;;;;;6.90;2.50;;;11.60;91.50;;;;;;5084385;28;20578;-79
2022/05/09 07:04:45;;;;;;;8.07;2.40;;;12.00;91.30;;;;;;5084850;28;20240;-79
2022/05/09 07:07:11;;;;;;;6.43;2.30;;;12.50;91.10;;;;;;5078925;28;20221;-79
2022/05/09 07:09:38;;;;;;;7.07;2.27;;;13.10;90.10;;;;;;5084013;28;20236;-79
2022/05/09 07:12:07;;;;;;;9.97;3.00;;;13.60;90.10;;;;;;5084830;28;20322;-78
2022/05/09 07:14:34;;;;;;;7.33;2.77;;;14.40;89.10;;;;;;5085470;28;20222;-79
2022/05/09 07:17:04;;;;;;;9.40;2.30;;;15.10;87.60;;;;;;5079357;28;20221;-79
2022/05/09 07:19:31;;;;;;;5.87;2.10;;;15.90;80.20;;;;;;5084554;28;20227;-79
2022/05/09 07:21:58;;;;;;;7.83;2.40;;;16.50;76.60;;;;;;5084406;28;20226;-79
2022/05/09 07:24:25;;;;;;;7.53;2.20;;;17.00;76.00;;;;;;5076440;28;20581;-78
2022/05/09 07:26:51;;;;;;;9.10;2.50;;;17.50;76.70;;;;;;5085700;28;20218;-79
2022/05/09 07:29:18;;;;;;;5.47;2.30;;;17.90;75.50;;;;;;5084127;28;20236;-79
2022/05/09 07:31:44;;;;;;;7.55;2.75;;;18.40;74.50;;;;;;5078675;28;20227;-79
2022/05/09 07:34:13;;;;;;;5.68;2.30;;;19.00;72.20;;;;;;5078762;28;20218;-78
2022/05/09 07:36:39;;;;;;;7.50;2.40;;;19.60;69.40;;;;;;5067474;28;20231;-77
2022/05/09 07:39:08;;;;;;;9.38;2.63;;;20.10;69.80;;;;;;5086459;28;20260;-78
2022/05/09 07:41:34;;;;;;;7.05;2.08;;;20.60;68.30;;;;;;5084381;28;20237;-78
2022/05/09 07:44:03;;;;;;;5.82;2.10;;;21.20;66.40;;;;;;5085595;28;20218;-79
2022/05/09 07:46:30;;;;;;;5.88;2.17;;;21.70;65.40;;;;;;5080175;28;20223;-78
2022/05/09 07:48:56;;;;;;;5.82;1.83;;;22.20;63.00;;;;;;5084587;28;20215;-78
2022/05/09 07:51:24;;;;;;;6.28;2.28;;;22.70;59.70;;;;;;5081997;28;20238;-79
2022/05/09 07:53:51;;;;;;;4.25;1.88;;;22.90;56.80;;;;;;5083371;28;20569;-78
2022/05/09 07:56:18;;;;;;;6.78;2.22;;;23.00;57.00;;;;;;5083058;28;20594;-78
2022/05/09 07:58:45;;;;;;;5.13;2.10;;;23.10;55.50;;;;;;5082924;28;20322;-79
2022/05/09 08:01:11;;;;;;;3.65;1.67;;;23.10;55.80;;;;;;5083867;28;20206;-78
2022/05/09 08:03:39;;;;;;;4.68;1.83;;;23.20;55.10;;;;;;5085851;28;20222;-79
2022/05/09 08:06:06;;;;;;;5.13;2.22;;;23.30;55.30;;;;;;5077156;28;20288;-78
2022/05/09 08:08:36;;;;;;;4.68;1.92;;;23.50;54.70;;;;;;5083345;28;20640;-79
2022/05/09 08:11:04;;;;;;;5.70;2.42;;;23.90;52.10;;;;;;5083945;28;20642;-79
2022/05/09 08:13:33;;;;;;;8.45;2.20;;;24.10;51.00;;;;;;5085067;28;20227;-78
2022/05/09 08:16:02;;;;;;;4.10;1.80;;;24.30;50.60;;;;;;5071267;28;20213;-78
2022/05/09 08:18:30;;;;;;;5.22;2.00;;;24.30;51.00;;;;;;5083143;28;20280;-79
2022/05/09 08:20:58;;;;;;;3.90;1.95;;;24.40;51.10;;;;;;5086872;28;20230;-78
2022/05/09 08:23:24;;;;;;;4.03;1.65;;;24.60;49.90;;;;;;5078431;28;20222;-79
2022/05/09 08:25:55;;;;;;;4.88;1.63;;;24.60;48.60;;;;;;5078751;28;20269;-79
2022/05/09 08:28:22;;;;;;;3.28;1.75;;;24.70;48.20;;;;;;5087064;28;20219;-78
2022/05/09 08:30:51;;;;;;;4.03;1.77;;;24.80;49.00;;;;;;5087763;28;20552;-79
2022/05/09 08:33:21;;;;;;;3.92;1.58;;;25.00;48.40;;;;;;5085168;28;20233;-79
2022/05/09 08:35:49;;;;;;;4.82;1.60;;;25.20;47.20;;;;;;5078085;28;20314;-79
2022/05/09 08:38:16;;;;;;;4.82;1.80;;;25.50;47.30;;;;;;5090564;28;20237;-78
2022/05/09 08:40:53;;;;;;;4.88;1.92;;;25.70;47.40;;;;;;5088654;28;20574;-78
2022/05/09 08:43:32;;;;;;;5.38;2.25;;;26.00;46.90;;;;;;5082329;28;20227;-78
2022/05/09 08:46:07;;;;;;;5.57;2.00;;;26.20;46.10;;;;;;5083989;28;20215;-79
2022/05/09 08:48:55;;;;;;;4.97;1.80;;;26.30;46.50;;;;;;5088283;28;20226;-79
2022/05/09 08:51:33;;;;;;;5.13;1.98;;;26.50;46.40;;;;;;5083631;28;20223;-79
2022/05/09 08:54:04;;;;;;;4.82;1.75;;;26.70;46.70;;;;;;5096722;28;20245;-78
2022/05/09 08:56:30;;;;;;;5.35;1.98;;;27.00;46.50;;;;;;5089447;28;20219;-79
2022/05/09 08:59:02;;;;;;;4.97;2.00;;;27.20;46.10;;;;;;5083769;28;20808;-79
2022/05/09 09:01:34;;;;;;;7.30;2.40;;;27.30;44.80;;;;;;5083620;28;20391;-79
2022/05/09 09:04:04;;;;;;;8.38;2.30;;;27.40;45.40;;;;;;5086848;28;20237;-78
2022/05/09 09:07:14;;;;;;;5.43;2.22;;;27.50;45.10;;;;;;5085278;28;20214;-79
2022/05/09 09:10:03;;;;;;;5.43;2.10;;;27.60;45.50;;;;;;5078787;28;20249;-78
2022/05/09 09:12:46;;;;;;;5.78;2.25;;;27.90;45.10;;;;;;5080235;28;20223;-78
2022/05/09 09:15:26;;;;;;;8.43;2.13;;;28.00;43.80;;;;;;5081080;28;20219;-78
2022/05/09 09:18:02;;;;;;;5.47;2.33;;;28.20;44.00;;;;;;5082843;28;20225;-78
2022/05/09 09:20:34;;;;;;;4.88;2.22;;;28.40;44.30;;;;;;5080208;28;20234;-78
2022/05/09 09:23:17;;;;;;;7.72;2.45;;;28.50;43.00;;;;;;5074924;28;20269;-78
2022/05/09 09:25:58;;;;;;;11.90;2.40;;;28.40;42.60;;;;;;5081519;28;21021;-78
2022/05/09 09:28:29;;;;;;;8.55;2.35;;;28.20;41.30;;;;;;5081547;28;20221;-78
2022/05/09 09:30:58;;;;;;;8.63;3.80;;;27.70;41.80;;;;;;5082544;28;20225;-78
2022/05/09 09:33:25;;;;;;;6.47;2.70;;;27.30;42.10;;;;;;5085005;28;20270;-78
2022/05/09 09:35:57;;;;;;;6.20;2.15;;;27.00;42.50;;;;;;5085127;28;20211;-78
2022/05/09 09:38:40;;;;;;;5.25;2.40;;;26.80;43.30;;;;;;5079648;28;20325;-78
2022/05/09 09:41:23;;;;;;;6.18;1.88;;;26.60;41.60;;;;;;5079044;28;20313;-78
2022/05/09 09:43:57;;;;;;;6.55;2.30;;;26.50;43.00;;;;;;5082131;28;20222;-78
2022/05/09 09:46:25;;;;;;;6.63;2.22;;;26.40;43.40;;;;;;5082928;28;20225;-78
2022/05/09 09:49:04;;;;;;;5.75;2.15;;;26.40;43.30;;;;;;5085232;28;20307;-78
2022/05/09 09:51:31;;;;;;;8.23;2.38;;;26.50;43.20;;;;;;5081199;28;20214;-78
2022/05/09 09:54:02;;;;;;;5.80;2.13;;;26.60;44.50;;;;;;5083800;28;20229;-78
2022/05/09 09:56:32;;;;;;;7.82;2.10;;;26.80;44.20;;;;;;5079164;28;20270;-78
2022/05/09 09:59:15;;;;;;;7.03;2.80;;;27.10;42.70;;;;;;5076092;28;20291;-78
2022/05/09 10:01:44;;;;;;;5.13;1.80;;;27.30;42.00;;;;;;5084662;28;20243;-78
2022/05/09 10:04:13;;;;;;;4.55;2.38;;;27.30;42.30;;;;;;5082449;28;20230;-78
2022/05/09 10:06:59;;;;;;;7.18;2.45;;;27.30;42.50;;;;;;5083485;28;20226;-78
2022/05/09 10:09:29;;;;;;;4.93;1.98;;;27.30;42.30;;;;;;5081987;28;20263;-78
2022/05/09 10:12:14;;;;;;;6.43;2.28;;;27.40;41.60;;;;;;5084285;28;20214;-78
2022/05/09 10:14:40;;;;;;;4.85;2.00;;;27.40;41.00;;;;;;5079279;28;20709;-78
2022/05/09 10:17:20;;;;;;;5.03;1.80;;;27.40;41.10;;;;;;5082240;28;20230;-78
2022/05/09 10:19:48;;;;;;;4.97;2.25;;;27.20;40.00;;;;;;5083808;28;21055;-79
2022/05/09 10:25:09;;;;;;;5.00;1.73;;;27.10;40.90;;;;;;5079149;28;20230;-78
2022/05/09 10:27:37;;;;;;;4.18;1.70;;;27.10;40.30;;;;;;5082153;28;20226;-78
2022/05/09 10:30:09;;;;;;;5.38;2.10;;;27.10;40.50;;;;;;5084376;28;20219;-78
2022/05/09 10:32:45;;;;;;;4.03;1.90;;;27.10;38.50;;;;;;5079580;28;20218;-78
2022/05/09 10:35:19;;;;;;;8.52;2.03;;;27.10;37.90;;;;;;5083902;28;20757;-78
2022/05/09 10:37:51;;;;;;;4.43;2.30;;;27.10;38.80;;;;;;5078371;28;20238;-78
2022/05/09 10:40:22;;;;;;;5.70;2.00;;;27.00;38.00;;;;;;5083764;28;20226;-79
2022/05/09 10:42:53;;;;;;;5.28;2.22;;;26.90;38.50;;;;;;5077502;28;20767;-78
2022/05/09 10:45:24;;;;;;;5.13;1.95;;;26.70;37.90;;;;;;5084326;28;20223;-79
2022/05/09 10:47:58;;;;;;;5.63;1.85;;;26.60;38.90;;;;;;5080306;28;20691;-78
2022/05/09 10:50:28;;;;;;;4.97;1.98;;;26.60;38.70;;;;;;5082896;28;20241;-79
2022/05/09 10:53:07;;;;;;;12.35;2.40;;;26.80;39.00;;;;;;5073259;28;20242;-79
2022/05/09 10:55:38;;;;;;;7.07;2.00;;;27.00;39.00;;;;;;5081329;28;20233;-78
2022/05/09 10:58:09;;;;;;;4.50;1.90;;;27.30;38.70;;;;;;5082200;28;20276;-79
2022/05/09 11:00:42;;;;;;;3.38;1.70;;;27.60;37.80;;;;;;5081664;28;20235;-78
2022/05/09 11:03:19;;;;;;;3.47;1.77;;;27.80;37.40;;;;;;5082750;28;20225;-78
2022/05/09 11:06:08;;;;;;;2.85;1.63;;;27.90;36.10;;;;;;5084322;28;20225;-79
2022/05/09 11:08:49;;;;;;;4.05;2.25;;;28.10;36.70;;;;;;5074321;28;20839;-78
2022/05/09 11:11:25;;;;;;;4.30;1.90;;;28.20;37.20;;;;;;5077734;28;20227;-78
2022/05/09 11:14:02;;;;;;;2.92;1.60;;;28.40;36.10;;;;;;5083331;28;20355;-79
2022/05/09 11:16:37;;;;;;;7.88;2.40;;;28.40;35.30;;;;;;5072359;28;20310;-78
2022/05/09 11:19:21;;;;;;;6.00;2.10;;;28.50;34.70;;;;;;5075553;28;20222;-78
2022/05/09 11:21:53;;;;;;;4.88;1.73;;;28.30;34.90;;;;;;5078808;28;20223;-78
2022/05/09 11:24:38;;;;;;;5.63;2.15;;;28.20;35.20;;;;;;5081917;28;20218;-78
2022/05/09 11:27:17;;;;;;;6.70;2.15;;;28.00;35.10;;;;;;5075131;28;20242;-80
2022/05/09 11:29:59;;;;;;;6.03;2.13;;;27.90;36.20;;;;;;5086786;28;20356;-79
2022/05/09 11:32:38;;;;;;;4.07;1.98;;;27.70;36.20;;;;;;5086057;28;22749;-80
2022/05/09 11:35:27;;;;;;;5.78;2.05;;;27.70;36.70;;;;;;5077710;28;20230;-80
2022/05/09 11:38:22;;;;;;;6.45;2.10;;;27.60;35.70;;;;;;5084963;28;20210;-80
2022/05/09 11:40:59;;;;;;;6.15;1.80;;;27.40;36.10;;;;;;5086202;28;20820;-79
2022/05/09 11:43:50;;;;;;;6.22;2.00;;;27.30;36.10;;;;;;5089226;28;20238;-80
2022/05/09 11:46:32;;;;;;;7.10;2.38;;;27.10;37.20;;;;;;5078323;28;20318;-80
2022/05/09 11:49:09;;;;;;;7.55;2.40;;;27.00;37.10;;;;;;5078799;28;20236;-80
2022/05/09 11:51:45;;;;;;;7.93;2.20;;;26.90;37.70;;;;;;5086851;28;20249;-79
2022/05/09 11:54:17;;;;;;;5.03;2.10;;;26.80;37.60;;;;;;5076284;28;20735;-82
2022/05/09 11:56:48;;;;;;;5.57;2.10;;;26.70;38.80;;;;;;5083116;28;20222;-83
2022/05/09 11:59:21;;;;;;;6.43;2.08;;;26.70;38.70;;;;;;5087454;28;20279;-81
2022/05/09 12:01:57;;;;;;;5.50;1.90;;;26.80;38.70;;;;;;5090917;28;20229;-83
2022/05/09 12:04:33;;;;;;;4.63;1.70;;;26.90;38.60;;;;;;5084778;28;20228;-81
2022/05/09 12:07:22;;;;;;;4.78;2.05;;;27.10;38.80;;;;;;5085968;28;20226;-83
2022/05/09 12:10:02;;;;;;;4.35;1.80;;;27.30;38.00;;;;;;5089042;28;20230;-82
2022/05/09 12:12:49;;;;;;;5.15;2.50;;;27.60;36.70;;;;;;5080061;28;20522;-81
2022/05/09 12:15:55;;;;;;;5.82;1.80;;;27.60;35.40;;;;;;5085228;28;20315;-81
2022/05/09 12:18:30;;;;;;;7.95;2.10;;;27.50;35.00;;;;;;5089207;28;20222;-82
2022/05/09 12:21:09;;;;;;;6.18;2.28;;;27.30;35.40;;;;;;5089003;28;20272;-82
2022/05/09 12:24:10;;;;;;;5.95;2.33;;;27.10;35.60;;;;;;5082086;28;20222;-83
2022/05/09 12:26:41;;;;;;;6.50;2.33;;;27.00;36.90;;;;;;5085158;28;20265;-81
2022/05/09 12:29:49;;;;;;;3.47;2.20;;;26.80;36.10;;;;;;5082803;28;20219;-81
2022/05/09 12:32:17;;;;;;;4.13;1.98;;;26.80;36.40;;;;;;5079965;28;20238;-81
2022/05/09 12:34:46;;;;;;;4.88;1.80;;;26.90;36.50;;;;;;5082475;28;20246;-81
2022/05/09 12:37:24;;;;;;;5.20;1.83;;;26.90;34.70;;;;;;5083474;28;21333;-81
2022/05/09 12:39:54;;;;;;;4.90;1.85;;;26.90;34.70;;;;;;5082612;28;20290;-83
2022/05/09 12:42:43;;;;;;;6.88;1.88;;;26.80;34.60;;;;;;5085163;28;20225;-82
2022/05/09 12:45:12;;;;;;;5.50;2.08;;;26.80;35.20;;;;;;5085304;28;20210;-80
2022/05/09 12:47:40;;;;;;;3.85;1.73;;;26.80;35.70;;;;;;5086772;28;20223;-82
2022/05/09 12:50:14;;;;;;;7.00;2.08;;;27.00;35.90;;;;;;5089390;28;20230;-82
2022/05/09 12:52:49;;;;;;;6.13;2.10;;;27.10;36.10;;;;;;5084331;28;20219;-80
2022/05/09 12:58:19;;;;;;;4.35;2.17;;;27.30;36.20;;;;;;5086245;28;20217;-81
2022/05/09 13:00:46;;;;;;;6.28;1.98;;;27.50;36.90;;;;;;5083922;28;20222;-84
2022/05/09 13:03:13;;;;;;;6.10;2.28;;;27.70;36.30;;;;;;5087208;28;20215;-83
2022/05/09 13:05:42;;;;;;;5.07;1.90;;;27.80;35.00;;;;;;5083905;28;20858;-83
2022/05/09 13:08:13;;;;;;;7.75;2.08;;;27.90;35.60;;;;;;5085640;28;20272;-82
2022/05/09 13:10:47;;;;;;;6.28;2.03;;;27.90;35.30;;;;;;5082097;28;20756;-84
2022/05/09 13:13:28;;;;;;;7.18;2.05;;;27.90;35.00;;;;;;5083667;28;20215;-83
2022/05/09 13:15:55;;;;;;;4.40;2.22;;;27.90;34.30;;;;;;5092380;28;20218;-81
2022/05/09 13:18:25;;;;;;;4.82;1.80;;;27.80;34.00;;;;;;5084501;28;20242;-81
2022/05/09 13:20:55;;;;;;;5.40;2.13;;;27.70;34.20;;;;;;5084116;28;20238;-80
2022/05/09 13:23:30;;;;;;;4.03;1.90;;;27.60;34.40;;;;;;5088823;28;20285;-81
2022/05/09 13:26:00;;;;;;;6.53;1.90;;;27.60;34.30;;;;;;5087175;28;20308;-80
2022/05/09 13:28:32;;;;;;;5.15;2.05;;;27.60;34.40;;;;;;5084501;28;20218;-81